Tiempo atmosférico en la estación meteorológica de Chandrexa De Queixa, Ourense (990 m.)



Fecha
DESCASC
Temp. máxima en grados centígrados (hora)
DESCASC
Temp. mínima en grados centígrados (hora)
DESCASC
Temp. media en grados centígrados
DESCASC
Racha de viento máxima en m/sg (hora)
DESCASC
Velocidad máxima media en intervalos de 10 minutos(hora)
DESCASC
Precipitaciones diarias en mm
DESCASC
Precipitaciones de 00:00 a 06:00 en mm
DESCASC
Precipitaciones de 06:00 a 12:00 en mm
DESCASC
Precipitaciones de 12:00 a 18:00 en mm
DESCASC
Precipitaciones de 18:00 a 24:00 en mm
DESCASC
27-10-2020 10.8 (12:40) 5.5 (00:20) 8.2 14.17 (17:20) 9.72 (18:20) 0.2 0 0 0 0.2
26-10-2020 7.5 (14:10) 2 (00:00) 4.8 8.61 (14:00) 3.33 (16:30) 1.6 1.4 0.2 0 0
25-10-2020 10.8 (00:10) 1.7 (23:00) 6.3 23.89 (00:20) 15.83 (00:10) 53.2 31.2 9.2 6.4 6.4
24-10-2020 11.7 (14:00) 6.6 (00:00) 9.1 25.28 (23:40) 14.44 (23:40) 0 0 0 0 0
23-10-2020 13 (16:30) 6.6 (00:00) 9.8 7.78 (16:30) 4.44 (16:30) 0.4 0 0.2 0.2 0
22-10-2020 13.1 (17:40) 7.5 (00:00) 10.3 13.89 (01:50) 8.06 (01:30) 2.8 0 0 2.6 0.2
21-10-2020 11.6 (15:20) 8.4 (00:00) 10 20 (04:00) 10.28 (03:50) 14.8 10 1.4 3.4 0
20-10-2020 12.3 (12:20) 9.5 (00:00) 10.9 22.78 (12:00) 14.17 (12:00) 21.2 0 0 7.4 13.8
19-10-2020 16.5 (12:40) 9.5 (00:00) 13 28.06 (16:10) 19.17 (17:10) 10.4 0 0 0.2 10.2
18-10-2020 19.3 (15:50) 6.6 (00:00) 12.9 12.78 (23:50) 6.94 (13:20) 0 0 0 0 0
17-10-2020 16.8 (17:10) 4.4 (00:00) 10.6 11.39 (05:30) 5.28 (04:40) 0 0 0 0 0
16-10-2020 15.7 (16:30) 0.2 (00:00) 7.9 5.83 (12:40) 3.61 (12:50) 0 0 0 0 0
15-10-2020 10.4 (17:40) 3.6 (00:00) 7 5.56 (14:40) 2.22 (14:40) 0 0 0 0 0
14-10-2020 9.3 (16:50) 4.6 (00:00) 7 6.94 (00:50) 3.06 (00:50) 2.6 0.2 1.4 1 0
13-10-2020 11.2 (11:00) 6.1 (00:00) 8.6 6.94 (17:10) 2.78 (21:20) 3.6 1 2.4 0.2 0
12-10-2020 15.5 (14:20) 0 (00:00) 7.8 5.56 (15:00) 2.5 (14:30) 0 0 0 0 0
11-10-2020 14.5 (16:50) 3.3 (00:00) 8.9 7.22 (13:10) 3.06 (12:50) 0 0 0 0 0
10-10-2020 15.7 (15:40) 6.3 (00:00) 11 7.5 (14:40) 3.06 (14:30) 0 0 0 0 0
09-10-2020 18.9 (16:40) 4.7 (00:00) 11.8 6.39 (18:40) 2.5 (14:10) 0 0 0 0 0
08-10-2020 22.9 (16:30) 7.2 (00:00) 15 7.22 (13:50) 4.17 (13:50) 0 0 0 0 0
07-10-2020 19.9 (15:10) 10.4 (00:00) 15.1 4.44 (15:30) 1.94 (15:10) 0 0 0 0 0
06-10-2020 18 (16:20) 11.1 (00:00) 14.6 9.44 (15:00) 4.44 (14:50) 0.2 0 0 0.2 0
05-10-2020 13.6 (17:00) 6.4 (00:00) 10 9.17 (02:10) 3.89 (02:10) 1 0.8 0.2 0 0
04-10-2020 9 (16:00) 6.6 (00:00) 7.8 12.5 (18:30) 5.83 (19:40) 10.2 2 1.6 5 1.6
03-10-2020 10.4 (16:10) 4.3 (00:00) 7.3 10.56 (03:50) 4.44 (01:10) 6.4 6 0.4 0 0
02-10-2020 12.1 (01:50) 4.3 (00:00) 8.2 20.28 (03:50) 9.72 (00:20) 40.8 21.8 11.6 2.8 4.6
01-10-2020 14.1 (15:20) 8.9 (00:00) 11.5 17.5 (23:40) 10 (23:30) 3.8 0.4 0.8 0 2.6
30-09-2020 22.5 (16:00) 6.4 (00:00) 14.5 8.61 (15:40) 4.17 (15:30) 0 0 0 0 0

Gráficas

Temp. máximas Temp. mínimas Temp. medias Precipitaciones Rachas de viento máximas Velocidades máximas media en intervalos de 10 minutos

Datos horarios

Fecha y hora oficial Temperatura (ºC) Velocidad del viento (km/h) Dirección del viento Racha (km/h) Dirección de racha Precipitación (mm) Presión (hPa) Tendencia (hPa) Humedad (%)
2020-10-29 23:00:00 7.2 3 Norte 13 Nordeste 0 -- -- 83
2020-10-29 22:00:00 6.9 6 Norte 14 Norte 0 -- -- 80
2020-10-29 21:00:00 7.7 3 Norte 8 Norte 0 -- -- 85
2020-10-29 20:00:00 7.1 0 Calma 4 Oeste 0 -- -- 86
2020-10-29 19:00:00 9.2 0 Calma 9 Oeste 0 -- -- 78
2020-10-29 18:00:00 12.2 4 Oeste 11 Oeste 0 -- -- 72
2020-10-29 17:00:00 14.7 4 Oeste 12 Sudoeste 0 -- -- 66
2020-10-29 16:00:00 15.8 6 Oeste 14 Oeste 0 -- -- 66
2020-10-29 15:00:00 14.4 4 Norte 12 Norte 0 -- -- 74
2020-10-29 14:00:00 13.1 6 Norte 12 Norte 0 -- -- 77
2020-10-29 13:00:00 10.5 8 Norte 16 Nordeste 0 -- -- 82
2020-10-29 12:00:00 7.5 10 Norte 14 Norte 0 -- -- 94
2020-10-29 11:00:00 5.7 9 Norte 12 Norte 0 -- -- 95
2020-10-29 10:00:00 4.2 0 Calma 4 Sudeste 0 -- -- 100
2020-10-29 09:00:00 1.1 0 Calma 4 Sur 0 -- -- 100
2020-10-29 08:00:00 1.2 0 Calma 7 Oeste 0 -- -- 100
2020-10-29 07:00:00 1.2 5 Sur 8 Sur 0 -- -- 100
2020-10-29 06:00:00 1.6 0 Calma 9 Sur 0 -- -- 100
2020-10-29 05:00:00 1.6 2 Sur 4 Sur 0 -- -- 100
2020-10-29 04:00:00 2.2 0 Calma 5 Oeste 0 -- -- 100
2020-10-29 03:00:00 2.7 3 Sudoeste 4 Sudoeste 0 -- -- 100
2020-10-29 02:00:00 3.1 4 Sur 10 Sur 0 -- -- 99
2020-10-29 01:00:00 3.9 0 Calma 11 Sur 0 -- -- 97
2020-10-29 00:00:00 4.7 0 Calma 12 Sur 0 -- -- 95
2020-10-28 23:00:00 6.2 5 Sur 9 Sur 0 -- -- 93
2020-10-28 22:00:00 7.2 2 Sur 8 Sur 0 -- -- 94
2020-10-28 21:00:00 7.3 3 Sur 6 Sur 0 -- -- 95
2020-10-28 20:00:00 7.9 0 Calma 12 Oeste 0 -- -- 91
2020-10-28 19:00:00 9.3 2 Oeste 11 Noroeste 0 -- -- 89
2020-10-28 18:00:00 10.3 3 Oeste 13 Oeste 0 -- -- 84
2020-10-28 17:00:00 11.5 5 Oeste 18 Oeste 0 -- -- 78
2020-10-28 16:00:00 12 8 Sudoeste 19 Oeste 0 -- -- 76
2020-10-28 15:00:00 11 10 Noroeste 19 Oeste 0 -- -- 79
2020-10-28 14:00:00 11.3 8 Noroeste 26 Oeste 0 -- -- 76
2020-10-28 13:00:00 11.9 8 Noroeste 21 Oeste 0 -- -- 76
2020-10-28 12:00:00 11.6 8 Sudoeste 17 Sur 0 -- -- 79
2020-10-28 11:00:00 9.2 3 Oeste 8 Sudoeste 0 -- -- 88
2020-10-28 10:00:00 8.1 2 Sudoeste 8 Noroeste 0 -- -- 95
2020-10-28 09:00:00 7.8 0 Calma 10 Noroeste 0.2 -- -- 99
2020-10-28 08:00:00 7.9 2 Norte 11 Noroeste 0.2 -- -- 99
2020-10-28 07:00:00 8.1 0 Calma 5 Sur 0 -- -- 97
2020-10-28 06:00:00 8 2 Sur 18 Sur 0 -- -- 96
2020-10-28 05:00:00 8.2 8 Sur 15 Sur 0 -- -- 96
2020-10-28 04:00:00 8.2 3 Sur 23 Oeste 0 -- -- 96
2020-10-28 03:00:00 8.5 10 Oeste 23 Oeste 0 -- -- 98
2020-10-28 02:00:00 8.9 10 Sudoeste 24 Oeste 0.4 -- -- 99
2020-10-28 01:00:00 9.9 12 Oeste 29 Oeste 0.2 -- -- 98
2020-10-28 00:00:00 10.4 14 Sur 25 Sudoeste 0.2 -- -- 100
2020-10-27 23:00:00 10.3 16 Sur 27 Sudoeste 0 -- -- 100
2020-10-27 22:00:00 10.1 18 Sur 30 Sur 0 -- -- 99
2020-10-27 21:00:00 10.4 20 Sur 35 Sur 0 -- -- 98
2020-10-27 20:00:00 10 21 Sur 48 Sudoeste 0 -- -- 98
2020-10-27 19:00:00 9.9 29 Sur 46 Sur 0 -- -- 97
2020-10-27 18:00:00 10.1 34 Sur 51 Sudoeste 0 -- -- 94
2020-10-27 17:00:00 10.3 28 Sur 44 Sur 0 -- -- 93
2020-10-27 16:00:00 10.4 27 Sur 48 Sur 0 -- -- 91
2020-10-27 15:00:00 10 31 Sur 49 Sur 0 -- -- 93
2020-10-27 14:00:00 9.6 21 Sur 48 Sur 0 -- -- 93
2020-10-27 13:00:00 10.3 21 Sur 46 Sudoeste 0 -- -- 89
2020-10-27 12:00:00 9.9 23 Sur 40 Sudoeste 0 -- -- 89
2020-10-27 11:00:00 9.3 24 Sudoeste 42 Sur 0 -- -- 90
2020-10-27 10:00:00 8.7 21 Sudoeste 41 Sur 0 -- -- 91
2020-10-27 09:00:00 7.8 20 Sur 40 Sudoeste 0 -- -- 93
2020-10-27 08:00:00 7.4 13 Sur 32 Sur 0 -- -- 93
2020-10-27 07:00:00 7.1 16 Sur 40 Sur 0 -- -- 94
2020-10-27 06:00:00 6.8 15 Sudoeste 37 Sudoeste 0 -- -- 94
2020-10-27 05:00:00 6.7 14 Sudoeste 32 Sudoeste 0 -- -- 92
2020-10-27 04:00:00 6.4 13 Sur 30 Sudoeste 0 -- -- 92
2020-10-27 03:00:00 6.3 17 Sur 33 Sur 0 -- -- 92
2020-10-27 02:00:00 5.9 9 Sur 26 Sur 0 -- -- 90
2020-10-27 01:00:00 5.5 13 Sur 25 Sur 0 -- -- 89
2020-10-27 00:00:00 5.7 10 Sur 27 Oeste 0 -- -- 90
2020-10-26 23:00:00 5.7 5 Sudoeste 18 Sudoeste 0 -- -- 94
2020-10-26 22:00:00 5.7 8 Sudoeste 22 Sur 0 -- -- 96
2020-10-26 21:00:00 5.6 8 Sudoeste 27 Sudoeste 0 -- -- 95
2020-10-26 20:00:00 5.8 11 Sudoeste 28 Sudoeste 0 -- -- 94
2020-10-26 19:00:00 5.8 9 Sudoeste 22 Sudoeste 0 -- -- 93
2020-10-26 18:00:00 6.4 7 Sudoeste 27 Oeste 0 -- -- 90
2020-10-26 17:00:00 7.2 6 Sudoeste 30 Noroeste 0 -- -- 88
2020-10-26 16:00:00 7 6 Oeste 28 Oeste 0 -- -- 89
2020-10-26 15:00:00 7.3 10 Oeste 30 Sudoeste 0 -- -- 89
2020-10-26 14:00:00 6.7 9 Oeste 31 Sudoeste 0 -- -- 97
2020-10-26 13:00:00 6.3 7 Oeste 23 Oeste 0 -- -- 91
2020-10-26 12:00:00 6.4 10 Oeste 24 Oeste 0 -- -- 93
2020-10-26 11:00:00 5.1 8 Oeste 19 Oeste 0.2 -- -- 99
2020-10-26 10:00:00 4.4 3 Oeste 9 Sudoeste 0 -- -- 100
2020-10-26 09:00:00 3.6 2 Oeste 15 Noroeste 0 -- -- 100
2020-10-26 08:00:00 3.2 3 Oeste 8 Oeste 0 -- -- 100
2020-10-26 07:00:00 3 2 Sur 12 Oeste 0 -- -- 99
2020-10-26 06:00:00 2.7 4 Oeste 12 Oeste 0 -- -- 99
2020-10-26 05:00:00 2.6 3 Sudoeste 12 Sur 0 -- -- 98
2020-10-26 04:00:00 2.5 3 Sur 14 Sur 0.4 -- -- 100
2020-10-26 03:00:00 2.8 5 Oeste 16 Oeste 0.4 -- -- 100
2020-10-26 02:00:00 2.9 10 Noroeste 25 Oeste 0.6 -- -- 100
2020-10-26 01:00:00 2.8 3 Sur 11 Sudoeste 0 -- -- 100
2020-10-26 00:00:00 2 6 Sur 18 Sudeste 0.2 -- -- 100
2020-10-25 23:00:00 1.7 9 Sur 18 Oeste 3.2 -- -- 98
2020-10-25 22:00:00 3.6 10 Oeste 25 Noroeste 2.4 -- -- 96
2020-10-25 21:00:00 4.1 5 Oeste 32 Sudoeste 0.2 -- -- 96
2020-10-25 20:00:00 4.3 6 Oeste 20 Sudoeste 0.4 -- -- 98
2020-10-25 19:00:00 3.8 9 Sudoeste 18 Sur 0 -- -- 98
2020-10-25 18:00:00 3.5 9 Sur 39 Noroeste 3 -- -- 96
2020-10-25 17:00:00 6.1 9 Oeste 49 Sudoeste 0 -- -- 90
2020-10-25 16:00:00 6.2 22 Sudoeste 46 Sudoeste 0 -- -- 91
2020-10-25 15:00:00 5.6 16 Sudoeste 42 Oeste 1.4 -- -- 94
2020-10-25 14:00:00 6.6 24 Oeste 50 Oeste 1.6 -- -- 92
2020-10-25 13:00:00 8.3 23 Sudoeste 45 Sudoeste 0.4 -- -- 91
2020-10-25 12:00:00 8.5 14 Sudoeste 50 Sudoeste 1.6 -- -- 100
2020-10-25 11:00:00 8.4 19 Sudoeste 50 Oeste 0.8 -- -- 98
2020-10-25 10:00:00 8.2 18 Sudoeste 51 Sudoeste 1.8 -- -- 100
2020-10-25 09:00:00 7.7 13 Sudoeste 37 Oeste 1.6 -- -- 100
2020-10-25 08:00:00 8.2 14 Oeste 36 Oeste 1.8 -- -- 99
2020-10-25 07:00:00 8.9 17 Sudoeste 57 Sur 1.6 -- -- 99
2020-10-25 06:00:00 9.4 25 Sudoeste 54 Sur 6.2 -- -- 98
2020-10-25 05:00:00 10.3 36 Sur 76 Sur 7 -- -- 98
2020-10-25 04:00:00 10.3 40 Sur 80 Sudoeste 7.6 -- -- 98
2020-10-25 03:00:00 10.1 36 Sur 81 Sur 4.4 -- -- 98
2020-10-25 02:00:00 10.2 40 Sur 79 Sudoeste 3.8 -- -- 97
2020-10-25 01:00:00 10.7 54 Sudoeste 86 Sudoeste 0 -- -- 88
2020-10-25 00:00:00 10.7 51 Sudoeste 91 Sudoeste 0 -- -- 93
2020-10-24 23:00:00 10.7 41 Sur 81 Sudoeste 0 -- -- 95
2020-10-24 22:00:00 10.6 39 Sur 75 Sur 0 -- -- 94
2020-10-24 21:00:00 10.7 43 Sur 73 Sur 0 -- -- 91
2020-10-24 20:00:00 10.7 36 Sur 73 Sur 0 -- -- 91
2020-10-24 19:00:00 11.2 27 Sur 63 Sur 0 -- -- 85
2020-10-24 18:00:00 11.3 28 Sur 61 Sudoeste 0 -- -- 84
2020-10-24 17:00:00 11 37 Sur 64 Sur 0 -- -- 88
2020-10-24 16:00:00 10.9 42 Sur 64 Sur 0 -- -- 91
2020-10-24 15:00:00 11.2 43 Sur 65 Sur 0 -- -- 88
2020-10-24 14:00:00 11.7 35 Sur 61 Sur 0 -- -- 84
2020-10-24 13:00:00 11.1 29 Sur 47 Sur 0 -- -- 87
2020-10-24 12:00:00 10.3 23 Sur 44 Sur 0 -- -- 91
2020-10-24 11:00:00 9.4 28 Sur 41 Sur 0 -- -- 92
2020-10-24 10:00:00 8.6 27 Sur 41 Sur 0 -- -- 92
2020-10-24 09:00:00 8.3 17 Sur 32 Sur 0 -- -- 92
2020-10-24 08:00:00 8.1 19 Sur 34 Sur 0 -- -- 93
2020-10-24 07:00:00 8.1 17 Sur 31 Sur 0 -- -- 91
2020-10-24 06:00:00 8 10 Sur 23 Sur 0 -- -- 90
2020-10-24 05:00:00 7.9 14 Sur 28 Sur 0 -- -- 89
2020-10-24 04:00:00 7.6 13 Sur 30 Sur 0 -- -- 91
2020-10-24 03:00:00 7.3 13 Sur 26 Sur 0 -- -- 89
2020-10-24 02:00:00 7.3 17 Sur 27 Sur 0 -- -- 87
2020-10-24 01:00:00 6.8 17 Sur 36 Sudoeste 0 -- -- 88
2020-10-24 00:00:00 6.6 15 Sur 23 Sudoeste 0 -- -- 89
2020-10-23 23:00:00 7.6 9 Sudoeste 14 Sudoeste 0 -- -- 87
2020-10-23 22:00:00 8.3 8 Sudoeste 16 Sudoeste 0 -- -- 87
2020-10-23 21:00:00 8.5 2 Sudoeste 10 Oeste 0 -- -- 90
2020-10-23 20:00:00 8.6 5 Oeste 18 Oeste 0 -- -- 87
2020-10-23 19:00:00 9.2 5 Oeste 24 Oeste 0 -- -- 85
2020-10-23 18:00:00 9.9 12 Oeste 24 Oeste 0 -- -- 80
2020-10-23 17:00:00 12.4 9 Sudoeste 28 Sudoeste 0 -- -- 71
2020-10-23 16:00:00 12.5 12 Sudoeste 23 Sudoeste 0 -- -- 73
2020-10-23 15:00:00 10.5 6 Oeste 26 Oeste 0 -- -- 83
2020-10-23 14:00:00 9.1 5 Oeste 24 Oeste 0.2 -- -- 89
2020-10-23 13:00:00 8.1 9 Oeste 19 Oeste 0 -- -- 93
2020-10-23 12:00:00 8.3 5 Sudoeste 17 Oeste 0 -- -- 92
2020-10-23 11:00:00 7.6 7 Sudoeste 15 Sudoeste 0.2 -- -- 96
2020-10-23 10:00:00 6.9 6 Sudoeste 16 Sudoeste 0 -- -- 99
2020-10-23 09:00:00 6.8 6 Sudoeste 16 Sudoeste 0 -- -- 98
2020-10-23 08:00:00 6.8 5 Sur 11 Sudoeste 0 -- -- 98
2020-10-23 07:00:00 6.7 3 Sur 6 Sudoeste 0 -- -- 97
2020-10-23 06:00:00 6.8 3 Sur 13 Sur 0 -- -- 94
2020-10-23 05:00:00 7.3 8 Sur 13 Sur 0 -- -- 95
2020-10-23 04:00:00 7.4 4 Sur 17 Sudoeste 0 -- -- 93
2020-10-23 03:00:00 7.3 6 Sudoeste 15 Sur 0 -- -- 92
2020-10-23 02:00:00 7.2 6 Sudoeste 19 Sudoeste 0 -- -- 94
2020-10-23 01:00:00 7.4 11 Sudoeste 18 Sudoeste 0 -- -- 92
2020-10-23 00:00:00 7.5 7 Sur 19 Sur 0 -- -- 91
2020-10-22 23:00:00 7.8 12 Sur 25 Sudoeste 0 -- -- 89
2020-10-22 22:00:00 7.9 6 Sur 14 Sur 0 -- -- 91
2020-10-22 21:00:00 8.4 9 Sur 25 Sudoeste 0 -- -- 89
2020-10-22 20:00:00 9.1 10 Sudoeste 23 Oeste 0 -- -- 88
2020-10-22 19:00:00 10.3 9 Oeste 20 Oeste 0.2 -- -- 85
2020-10-22 18:00:00 12.1 10 Sudoeste 23 Sur 0 -- -- 75
2020-10-22 17:00:00 11.8 15 Sur 27 Sudoeste 0.4 -- -- 84
2020-10-22 16:00:00 10.9 10 Sudoeste 23 Sur 0 -- -- 87
2020-10-22 15:00:00 10.4 9 Sudoeste 30 Sur 1.8 -- -- 87
2020-10-22 14:00:00 10.6 12 Sudoeste 34 Sur 0.4 -- -- 90
2020-10-22 13:00:00 12.2 19 Sur 36 Sur 0 -- -- 78
2020-10-22 12:00:00 10.1 18 Sudoeste 36 Sudoeste 0 -- -- 86
2020-10-22 11:00:00 9 20 Sur 32 Sur 0 -- -- 88
2020-10-22 10:00:00 8.3 19 Sur 39 Sur 0 -- -- 89
2020-10-22 09:00:00 8.1 15 Sur 33 Sudoeste 0 -- -- 91
2020-10-22 08:00:00 8.2 13 Sur 28 Sudeste 0 -- -- 89
2020-10-22 07:00:00 8.3 14 Sur 34 Sur 0 -- -- 87
2020-10-22 06:00:00 8.2 6 Sudoeste 36 Sur 0 -- -- 87
2020-10-22 05:00:00 8.4 11 Sur 33 Sur 0 -- -- 85
2020-10-22 04:00:00 8.3 21 Sur 44 Sur 0 -- -- 88
2020-10-22 03:00:00 8.1 27 Sur 45 Sur 0 -- -- 86
2020-10-22 02:00:00 8.2 19 Sudoeste 50 Sur 0 -- -- 85
2020-10-22 01:00:00 8.2 28 Sur 49 Sudoeste 0 -- -- 86
2020-10-22 00:00:00 8.4 25 Sur 46 Sudoeste 0 -- -- 88
2020-10-21 23:00:00 8.6 16 Sur 37 Sur 0 -- -- 89
2020-10-21 22:00:00 8.9 26 Sur 52 Sur 0 -- -- 86
2020-10-21 21:00:00 9.2 30 Sur 48 Sur 0 -- -- 88
2020-10-21 20:00:00 9.3 22 Sur 59 Sur 0 -- -- 89
2020-10-21 19:00:00 9.3 35 Sur 56 Sur 0 -- -- 89
2020-10-21 18:00:00 9.2 31 Sur 65 Sur 1 -- -- 92
2020-10-21 17:00:00 10.5 24 Sur 49 Sur 0.2 -- -- 88
2020-10-21 16:00:00 11.1 26 Sur 53 Sur 0.2 -- -- 88
2020-10-21 15:00:00 10.7 33 Sur 54 Sur 0.2 -- -- 86
2020-10-21 14:00:00 10 28 Sudoeste 57 Sudoeste 0.8 -- -- 91
2020-10-21 13:00:00 10.4 31 Sur 51 Sur 1 -- -- 91
2020-10-21 12:00:00 10.7 30 Sur 52 Sur 0.2 -- -- 87
2020-10-21 11:00:00 9.3 23 Sur 39 Sur 0 -- -- 93
2020-10-21 10:00:00 9 22 Sur 38 Sudeste 0.2 -- -- 96
2020-10-21 09:00:00 8.9 16 Sur 33 Sudoeste 0.2 -- -- 97
2020-10-21 08:00:00 9.1 16 Sur 40 Sudoeste 0 -- -- 96
2020-10-21 07:00:00 9.1 24 Sur 44 Sur 0.8 -- -- 96
2020-10-21 06:00:00 9.3 29 Sudoeste 53 Sur 0.4 -- -- 95
2020-10-21 05:00:00 9.6 23 Sudoeste 66 Sur 1.2 -- -- 95
2020-10-21 04:00:00 9.9 34 Sur 72 Sur 0.6 -- -- 96
2020-10-21 03:00:00 9.9 28 Sudoeste 46 Sudoeste 0.6 -- -- 96
2020-10-21 02:00:00 9.9 15 Sudoeste 34 Oeste 2.8 -- -- 97
2020-10-21 01:00:00 10.2 12 Sudoeste 30 Oeste 4.4 -- -- 99
2020-10-21 00:00:00 10.9 14 Sudoeste 36 Sudoeste 1.8 -- -- 97
2020-10-20 23:00:00 10.8 12 Sudoeste 39 Sudeste 1 -- -- 97
2020-10-20 22:00:00 10.7 17 Sur 38 Sur 3.6 -- -- 100
2020-10-20 21:00:00 9.6 2 Oeste 14 Norte 1.2 -- -- 100
2020-10-20 20:00:00 9.5 3 Norte 14 Norte 2.8 -- -- 100
2020-10-20 19:00:00 9.5 9 Nordeste 16 Nordeste 3.4 -- -- 100
2020-10-20 18:00:00 9.7 6 Nordeste 12 Norte 3.4 -- -- 99
2020-10-20 17:00:00 9.9 3 Nordeste 13 Sudeste 2.2 -- -- 96
2020-10-20 16:00:00 10.1 4 Sudoeste 47 Sur 1.6 -- -- 93
2020-10-20 15:00:00 11.4 36 Sur 54 Sur 0.2 -- -- 87
2020-10-20 14:00:00 11.9 26 Sur 67 Sur 0 -- -- 74
2020-10-20 13:00:00 12.1 41 Sur 72 Sur 0 -- -- 71
2020-10-20 12:00:00 12.1 51 Sur 82 Sur 0 -- -- 69
2020-10-20 11:00:00 12.2 33 Sur 51 Sudeste 0 -- -- 77
2020-10-20 10:00:00 12 31 Sur 59 Sur 0 -- -- 79
2020-10-20 09:00:00 11.7 44 Sur 60 Sur 0 -- -- 80
2020-10-20 08:00:00 11.5 23 Sur 45 Sur 0 -- -- 83
2020-10-20 07:00:00 11.5 24 Sur 47 Sur 0 -- -- 83
2020-10-20 06:00:00 11.5 28 Sur 46 Sur 0 -- -- 85
2020-10-20 05:00:00 11.4 14 Sur 38 Sudoeste 0 -- -- 87
2020-10-20 04:00:00 11.7 14 Sudoeste 40 Sudoeste 0 -- -- 89
2020-10-20 03:00:00 11.6 10 Sudoeste 46 Sur 0 -- -- 89
2020-10-20 02:00:00 11.4 12 Sudoeste 44 Sur 0 -- -- 91
2020-10-20 01:00:00 11.1 8 Sudoeste 39 Sur 0 -- -- 93
2020-10-20 00:00:00 11.1 28 Sur 47 Sur 0 -- -- 93
2020-10-19 23:00:00 10.3 30 Sur 43 Sur 0.2 -- -- 94
2020-10-19 22:00:00 10.1 30 Sur 44 Sur 0.4 -- -- 95
2020-10-19 21:00:00 10.1 32 Sur 58 Sur 1.4 -- -- 95
2020-10-19 20:00:00 9.7 34 Sur 71 Sur 4.8 -- -- 95
2020-10-19 19:00:00 9.6 46 Sur 78 Sur 3.4 -- -- 93
2020-10-19 18:00:00 10.7 51 Sur 98 Sur 0.2 -- -- 84
2020-10-19 17:00:00 13.4 60 Sur 101 Sur 0 -- -- 59
2020-10-19 16:00:00 13.8 61 Sur 94 Sur 0 -- -- 61
2020-10-19 15:00:00 14.8 41 Sur 77 Sudeste 0 -- -- 53
2020-10-19 14:00:00 15.2 52 Sur 95 Sur 0 -- -- 50
2020-10-19 13:00:00 16.1 40 Sur 71 Sur 0 -- -- 46
2020-10-19 12:00:00 14.8 44 Sudeste 80 Sur 0 -- -- 48
2020-10-19 11:00:00 13.8 50 Sudeste 82 Sur 0 -- -- 48
2020-10-19 10:00:00 12.9 46 Sur 82 Sur 0 -- -- 50
2020-10-19 09:00:00 13.2 53 Sur 78 Sur 0 -- -- 48
2020-10-19 08:00:00 13.3 51 Sur 81 Sur 0 -- -- 48
2020-10-19 07:00:00 13.7 38 Sur 72 Sur 0 -- -- 45
2020-10-19 06:00:00 14.4 49 Sur 73 Sur 0 -- -- 42
2020-10-19 05:00:00 14.8 44 Sur 77 Sur 0 -- -- 40
2020-10-19 04:00:00 14.3 17 Sur 36 Sur 0 -- -- 42
2020-10-19 03:00:00 14.1 8 Sur 47 Sudeste 0 -- -- 48
2020-10-19 02:00:00 14.5 26 Sur 55 Sudeste 0 -- -- 51
2020-10-19 01:00:00 14.8 26 Sur 54 Sudeste 0 -- -- 48
2020-10-19 00:00:00 14.3 17 Sur 46 Sudeste 0 -- -- 49
2020-10-18 23:00:00 13.9 17 Sur 35 Sudeste 0 -- -- 50
2020-10-18 22:00:00 13.7 12 Sudeste 28 Sur 0 -- -- 52
2020-10-18 21:00:00 13.5 11 Sudeste 32 Sudeste 0 -- -- 52
2020-10-18 20:00:00 13.7 6 Sudeste 14 Sur 0 -- -- 53
2020-10-18 19:00:00 15.6 5 Sur 19 Sur 0 -- -- 49
2020-10-18 18:00:00 17.8 15 Sur 33 Sur 0 -- -- 41
2020-10-18 17:00:00 18.8 17 Sur 30 Sur 0 -- -- 45
2020-10-18 16:00:00 19.3 19 Sur 33 Sur 0 -- -- 47
2020-10-18 15:00:00 18.9 18 Sur 35 Sur 0 -- -- 50
2020-10-18 14:00:00 18 20 Sur 36 Sur 0 -- -- 51
2020-10-18 13:00:00 16.2 19 Sur 37 Sudeste 0 -- -- 56
2020-10-18 12:00:00 12.4 24 Sur 35 Sur 0 -- -- 63
2020-10-18 11:00:00 9.8 3 Sudoeste 10 Sur 0 -- -- 87
2020-10-18 10:00:00 7.1 3 Norte 12 Norte 0 -- -- 91
2020-10-18 09:00:00 8.2 4 Este 26 Sudeste 0 -- -- 83
2020-10-18 08:00:00 10.6 12 Sudeste 26 Sur 0 -- -- 76
2020-10-18 07:00:00 10.4 10 Sudeste 27 Sur 0 -- -- 79
2020-10-18 06:00:00 9 8 Sur 17 Sur 0 -- -- 88
2020-10-18 05:00:00 9 2 Norte 17 Sudeste 0 -- -- 89
2020-10-18 04:00:00 9.2 6 Sudeste 18 Sudeste 0 -- -- 90
2020-10-18 03:00:00 8 2 Sudoeste 11 Norte 0 -- -- 91
2020-10-18 02:00:00 9.7 2 Noroeste 8 Noroeste 0 -- -- 86
2020-10-18 01:00:00 10 3 Noroeste 16 Sur 0 -- -- 87
2020-10-18 00:00:00 8.4 5 Sur 15 Sudeste 0 -- -- 94
2020-10-17 23:00:00 8.7 0 Calma 9 Norte 0 -- -- 89
2020-10-17 22:00:00 9.5 0 Calma 15 Sudeste 0 -- -- 88
2020-10-17 21:00:00 10.9 9 Sur 15 Sur 0 -- -- 81
2020-10-17 20:00:00 12 3 Sur 13 Sur 0 -- -- 75
2020-10-17 19:00:00 14 6 Sur 20 Sur 0 -- -- 67
2020-10-17 18:00:00 16.3 9 Sudoeste 22 Sur 0 -- -- 57
2020-10-17 17:00:00 16.6 10 Sudoeste 22 Oeste 0 -- -- 59
2020-10-17 16:00:00 15.2 11 Sudoeste 23 Sudoeste 0 -- -- 65
2020-10-17 15:00:00 14.5 12 Sudoeste 29 Sur 0 -- -- 70
2020-10-17 14:00:00 13.3 2 Oeste 20 Sudoeste 0 -- -- 75
2020-10-17 13:00:00 12.1 7 Sudoeste 17 Sur 0 -- -- 75
2020-10-17 12:00:00 10.4 2 Sudoeste 9 Sudoeste 0 -- -- 77
2020-10-17 11:00:00 9 2 Oeste 9 Noroeste 0 -- -- 72
2020-10-17 10:00:00 7.2 3 Noroeste 9 Sudoeste 0 -- -- 72
2020-10-17 09:00:00 6.8 3 Sudoeste 11 Oeste 0 -- -- 73
2020-10-17 08:00:00 6.8 5 Oeste 11 Sur 0 -- -- 71
2020-10-17 07:00:00 6.8 2 Sudoeste 9 Sudoeste 0 -- -- 68
2020-10-17 06:00:00 7.3 5 Sur 41 Sur 0 -- -- 62
2020-10-17 05:00:00 7.4 15 Sur 33 Sur 0 -- -- 61
2020-10-17 04:00:00 6.5 4 Oeste 24 Sur 0 -- -- 72
2020-10-17 03:00:00 6.2 4 Sur 12 Sur 0 -- -- 78
2020-10-17 02:00:00 5 2 Nordeste 9 Norte 0 -- -- 89
2020-10-17 01:00:00 4.5 0 Calma 5 Sudoeste 0 -- -- 93
2020-10-17 00:00:00 4.9 2 Sudoeste 6 Sudoeste 0 -- -- 90
2020-10-16 23:00:00 5.5 4 Sudoeste 5 Sudoeste 0 -- -- 86
2020-10-16 22:00:00 6.3 4 Sur 7 Sur 0 -- -- 82
2020-10-16 21:00:00 7.5 4 Sudoeste 8 Sudeste 0 -- -- 76
2020-10-16 20:00:00 9.9 5 Sur 8 Sur 0 -- -- 68
2020-10-16 19:00:00 12.4 4 Sudoeste 16 Sudoeste 0 -- -- 60
2020-10-16 18:00:00 14.7 5 Oeste 17 Oeste 0 -- -- 47
2020-10-16 17:00:00 15.5 9 Sudoeste 19 Sudoeste 0 -- -- 48
2020-10-16 16:00:00 15.6 8 Sudoeste 15 Sudoeste 0 -- -- 49
2020-10-16 15:00:00 15.1 6 Sudoeste 18 Oeste 0 -- -- 53
2020-10-16 14:00:00 14.2 6 Oeste 18 Sur 0 -- -- 54
2020-10-16 13:00:00 12.4 13 Sur 21 Sur 0 -- -- 60
2020-10-16 12:00:00 9.6 5 Sudoeste 13 Oeste 0 -- -- 70
2020-10-16 11:00:00 5.2 2 Sur 4 Sudoeste 0 -- -- 94
2020-10-16 10:00:00 1.4 2 Noroeste 8 Sudoeste 0 -- -- 100
2020-10-16 09:00:00 0.3 2 Sudoeste 4 Oeste 0 -- -- 100
2020-10-16 08:00:00 0.3 0 Calma 2 Sur 0 -- -- 100
2020-10-16 07:00:00 0.5 0 Calma 4 Sudoeste 0 -- -- 100
2020-10-16 06:00:00 0.7 2 Sudoeste 5 Sudoeste 0 -- -- 100
2020-10-16 05:00:00 1 0 Calma 3 Sur 0 -- -- 100
2020-10-16 04:00:00 1.4 0 Calma 3 Sur 0 -- -- 99
2020-10-16 03:00:00 1.8 0 Calma 3 Sudoeste 0 -- -- 99
2020-10-16 02:00:00 2.3 0 Calma 6 Oeste 0 -- -- 98
2020-10-16 01:00:00 2.8 2 Sudoeste 7 Sur 0 -- -- 98
2020-10-16 00:00:00 3.7 0 Calma 10 Sur 0 -- -- 98
2020-10-15 23:00:00 3.9 3 Sur 9 Sur 0 -- -- 94
2020-10-15 22:00:00 5.1 3 Sur 10 Sur 0 -- -- 91
2020-10-15 21:00:00 6.7 4 Sur 7 Sudeste 0 -- -- 88
2020-10-15 20:00:00 8 0 Calma 9 Nordeste 0 -- -- 83
2020-10-15 19:00:00 9.2 2 Norte 15 Norte 0 -- -- 77
2020-10-15 18:00:00 9.9 5 Norte 16 Noroeste 0 -- -- 75
2020-10-15 17:00:00 9.5 6 Norte 16 Norte 0 -- -- 78
2020-10-15 16:00:00 9.5 7 Norte 18 Norte 0 -- -- 78
2020-10-15 15:00:00 8.7 4 Norte 20 Noroeste 0 -- -- 82
2020-10-15 14:00:00 9.5 7 Nordeste 17 Norte 0 -- -- 76
2020-10-15 13:00:00 9.4 5 Nordeste 15 Norte 0 -- -- 77
2020-10-15 12:00:00 8.3 4 Norte 13 Nordeste 0 -- -- 84
2020-10-15 11:00:00 7.1 3 Nordeste 13 Norte 0 -- -- 93
2020-10-15 10:00:00 5.6 3 Nordeste 11 Nordeste 0 -- -- 100
2020-10-15 09:00:00 5.6 3 Nordeste 9 Nordeste 0 -- -- 100
2020-10-15 08:00:00 5.4 0 Calma 6 Nordeste 0 -- -- 100
2020-10-15 07:00:00 5.3 0 Calma 12 Nordeste 0 -- -- 100
2020-10-15 06:00:00 5.1 0 Calma 4 Norte 0 -- -- 100
2020-10-15 05:00:00 5.2 0 Calma 12 Nordeste 0 -- -- 100
2020-10-15 04:00:00 5.4 3 Nordeste 12 Nordeste 0 -- -- 100
2020-10-15 03:00:00 5.6 2 Norte 9 Norte 0 -- -- 100
2020-10-15 02:00:00 5.7 2 Norte 8 Nordeste 0 -- -- 99
2020-10-15 01:00:00 5.6 0 Calma 5 Norte 0 -- -- 98
2020-10-15 00:00:00 5.4 0 Calma 4 Nordeste 0 -- -- 98
2020-10-14 23:00:00 5 0 Calma 4 Sudeste 0 -- -- 98
2020-10-14 22:00:00 4.6 0 Calma 6 Noroeste 0 -- -- 95
2020-10-14 21:00:00 5.4 2 Este 5 Norte 0 -- -- 94
2020-10-14 20:00:00 6.5 0 Calma 9 Norte 0 -- -- 95
2020-10-14 19:00:00 7.5 3 Sur 19 Norte 0 -- -- 92
2020-10-14 18:00:00 7.8 5 Norte 17 Norte 0.4 -- -- 94
2020-10-14 17:00:00 8.7 10 Norte 23 Norte 0.2 -- -- 88
2020-10-14 16:00:00 8.6 4 Norte 19 Noroeste 0 -- -- 89
2020-10-14 15:00:00 8.1 5 Norte 17 Nordeste 0.2 -- -- 96
2020-10-14 14:00:00 7.3 4 Norte 20 Norte 0 -- -- 96
2020-10-14 13:00:00 6.7 4 Norte 18 Norte 0.2 -- -- 100
2020-10-14 12:00:00 5.9 5 Norte 21 Norte 0.2 -- -- 100
2020-10-14 11:00:00 5.2 5 Nordeste 16 Norte 0.2 -- -- 100
2020-10-14 10:00:00 5.1 8 Norte 21 Nordeste 0.2 -- -- 100
2020-10-14 09:00:00 5 4 Nordeste 21 Norte 0.4 -- -- 100
2020-10-14 08:00:00 5.1 7 Norte 21 Norte 0.4 -- -- 100
2020-10-14 07:00:00 5.2 5 Norte 21 Nordeste 0 -- -- 100
2020-10-14 06:00:00 5.4 6 Norte 16 Norte 0.2 -- -- 100
2020-10-14 05:00:00 5.3 5 Norte 18 Nordeste 0 -- -- 100
2020-10-14 04:00:00 5.4 5 Norte 19 Nordeste 0 -- -- 100
2020-10-14 03:00:00 5.6 6 Norte 15 Norte 0 -- -- 98
2020-10-14 02:00:00 5.4 4 Norte 19 Norte 0 -- -- 98
2020-10-14 01:00:00 5.6 8 Norte 25 Nordeste 0 -- -- 97
2020-10-14 00:00:00 6.1 6 Norte 21 Norte 0 -- -- 96
2020-10-13 23:00:00 6.2 5 Norte 18 Norte 0 -- -- 93
2020-10-13 22:00:00 6.5 8 Norte 24 Norte 0 -- -- 93
2020-10-13 21:00:00 7.3 6 Norte 20 Norte 0 -- -- 94
2020-10-13 20:00:00 7.8 10 Norte 21 Noroeste 0 -- -- 92
2020-10-13 19:00:00 8.6 5 Norte 14 Noroeste 0 -- -- 86
2020-10-13 18:00:00 8.7 6 Norte 25 Norte 0 -- -- 90
2020-10-13 17:00:00 9.3 6 Norte 17 Noroeste 0 -- -- 89
2020-10-13 16:00:00 9.5 5 Norte 15 Noroeste 0 -- -- 91
2020-10-13 15:00:00 9.7 4 Noroeste 22 Noroeste 0 -- -- 94
2020-10-13 14:00:00 10 7 Noroeste 24 Norte 0 -- -- 93
2020-10-13 13:00:00 10.5 5 Noroeste 23 Norte 0.2 -- -- 94
2020-10-13 12:00:00 10.8 5 Norte 19 Norte 0 -- -- 98
2020-10-13 11:00:00 11.2 6 Noroeste 16 Noroeste 0.2 -- -- 99
2020-10-13 10:00:00 -- -- -- -- -- -- -- -- --
2020-10-13 09:00:00 10.7 0 Calma 18 Norte 0.2 -- -- 100
2020-10-13 08:00:00 11 4 Norte 17 Norte 1 -- -- 100
2020-10-13 07:00:00 11 6 Noroeste 12 Noroeste 0.8 -- -- 100
2020-10-13 06:00:00 10.7 0 Calma 2 Sudeste 0.4 -- -- 100
2020-10-13 05:00:00 10.7 0 Calma 4 Sudeste 0.4 -- -- 100
2020-10-13 04:00:00 -- -- -- -- -- -- -- -- --
2020-10-13 03:00:00 10.7 2 Norte 6 Norte 0.2 -- -- 100
2020-10-13 02:00:00 10.8 4 Norte 10 Norte 0 -- -- 100
2020-10-13 01:00:00 -- -- -- -- -- -- -- -- --
2020-10-13 00:00:00 11 0 Calma 8 Nordeste 0 -- -- 100
2020-10-12 23:00:00 11.2 2 Nordeste 8 Nordeste 0 -- -- 100
2020-10-12 22:00:00 11.3 0 Calma 5 Norte 0 -- -- 99
2020-10-12 21:00:00 11.3 0 Calma 6 Norte 0 -- -- 98
2020-10-12 20:00:00 11.6 0 Calma 5 Nordeste 0 -- -- 96
2020-10-12 19:00:00 11.9 2 Nordeste 9 Nordeste 0 -- -- 93
2020-10-12 18:00:00 -- -- -- -- -- -- -- -- --
2020-10-12 17:00:00 13.3 4 Nordeste 15 Nordeste 0 -- -- 78
2020-10-12 16:00:00 14.1 4 Nordeste 17 Norte 0 -- -- 71
2020-10-12 15:00:00 14.6 9 Norte 20 Norte 0 -- -- 64
2020-10-12 14:00:00 14.9 6 Norte 16 Nordeste 0 -- -- 60
2020-10-12 13:00:00 14.3 6 Norte 13 Norte 0 -- -- 61
2020-10-12 12:00:00 10.4 0 Calma 5 Sur 0 -- -- 71
2020-10-12 11:00:00 5.3 3 Sur 5 Sudoeste 0 -- -- 90
2020-10-12 10:00:00 1.2 3 Sur 6 Sur 0 -- -- 100
2020-10-12 09:00:00 0.1 3 Sudoeste 5 Sudoeste 0 -- -- 99
2020-10-12 08:00:00 0.3 2 Sudoeste 6 Sudoeste 0 -- -- 99
2020-10-12 07:00:00 0.6 2 Sudoeste 4 Sudoeste 0 -- -- 99
2020-10-12 06:00:00 0.9 0 Calma 5 Sur 0 -- -- 99
2020-10-12 05:00:00 1.4 2 Sudoeste 7 Sur 0 -- -- 98
2020-10-12 04:00:00 -- -- -- -- -- -- -- -- --
2020-10-12 03:00:00 2.2 2 Sur 8 Sudeste 0 -- -- 96
2020-10-12 02:00:00 2.9 4 Sur 6 Sur 0 -- -- 95
2020-10-12 01:00:00 3.5 2 Sur 5 Sur 0 -- -- 95
2020-10-12 00:00:00 4.2 2 Oeste 4 Oeste 0 -- -- 93
2020-10-11 23:00:00 5.1 0 Calma 4 Sur 0 -- -- 91
2020-10-11 22:00:00 6.2 0 Calma 5 Nordeste 0 -- -- 85
2020-10-11 21:00:00 -- -- -- -- -- -- -- -- --
2020-10-11 20:00:00 -- -- -- -- -- -- -- -- --
2020-10-11 19:00:00 11.3 7 Norte 21 Nordeste 0 -- -- 64
2020-10-11 18:00:00 12.9 7 Norte 21 Norte 0 -- -- 61
2020-10-11 17:00:00 14.5 6 Norte 19 Norte 0 -- -- 58
2020-10-11 16:00:00 14.2 7 Norte 21 Noroeste 0 -- -- 57
2020-10-11 15:00:00 13.3 8 Norte 22 Nordeste 0 -- -- 54
2020-10-11 14:00:00 12.3 9 Norte 26 Norte 0 -- -- 59
2020-10-11 13:00:00 11.3 10 Norte 23 Nordeste 0 -- -- 59
2020-10-11 12:00:00 10.2 3 Nordeste 12 Nordeste 0 -- -- 72
2020-10-11 11:00:00 6.5 2 Sur 6 Sudoeste 0 -- -- 93
2020-10-11 10:00:00 3.6 0 Calma 5 Oeste 0 -- -- 99
2020-10-11 09:00:00 3.4 0 Calma 5 Sur 0 -- -- 98
2020-10-11 08:00:00 4.2 0 Calma 3 Sudoeste 0 -- -- 99
2020-10-11 07:00:00 4.6 0 Calma 2 Sur 0 -- -- 99
2020-10-11 06:00:00 5 3 Sudeste 5 Sur 0 -- -- 99
2020-10-11 05:00:00 5.8 3 Sur 6 Sur 0 -- -- 98
2020-10-11 04:00:00 6 0 Calma 3 Sur 0 -- -- 99
2020-10-11 03:00:00 6 0 Calma 5 Sur 0 -- -- 97
2020-10-11 02:00:00 6.2 4 Sur 7 Sur 0 -- -- 97
2020-10-11 01:00:00 6.4 2 Sur 5 Sur 0 -- -- 97
2020-10-11 00:00:00 6.3 2 Sur 5 Sur 0 -- -- 93
2020-10-10 23:00:00 7.4 3 Sur 6 Sudoeste 0 -- -- 89
2020-10-10 22:00:00 8.6 2 Sudoeste 8 Noroeste 0 -- -- 86
2020-10-10 21:00:00 9.9 2 Oeste 17 Sudoeste 0 -- -- 82
2020-10-10 20:00:00 11.2 4 Norte 23 Noroeste 0 -- -- 78
2020-10-10 19:00:00 12.6 5 Norte 19 Noroeste 0 -- -- 77
2020-10-10 18:00:00 13.7 6 Noroeste 19 Oeste 0 -- -- 74
2020-10-10 17:00:00 14.1 5 Norte 15 Norte 0 -- -- 75
2020-10-10 16:00:00 15.1 8 Norte 21 Norte 0 -- -- 72
2020-10-10 15:00:00 15.3 8 Norte 27 Norte 0 -- -- 73
2020-10-10 14:00:00 14.9 8 Norte 25 Nordeste 0 -- -- 74
2020-10-10 13:00:00 14 10 Norte 23 Norte 0 -- -- 74
2020-10-10 12:00:00 12.5 4 Nordeste 12 Nordeste 0 -- -- 84
2020-10-10 11:00:00 9.9 3 Sudeste 11 Sur 0 -- -- 99
2020-10-10 10:00:00 8.8 0 Calma 11 Sur 0 -- -- 99
2020-10-10 09:00:00 8.4 3 Sudeste 6 Sudeste 0 -- -- 99
2020-10-10 08:00:00 8.1 3 Sudoeste 9 Sur 0 -- -- 99
2020-10-10 07:00:00 7.9 3 Sur 6 Sur 0 -- -- 100
2020-10-10 06:00:00 7.7 3 Sur 8 Sur 0 -- -- 100
2020-10-10 05:00:00 7.9 2 Sur 12 Sur 0 -- -- 100
2020-10-10 04:00:00 7.9 4 Sur 8 Sudeste 0 -- -- 100
2020-10-10 03:00:00 7.6 0 Calma 5 Sur 0 -- -- 99
2020-10-10 02:00:00 8 4 Sudoeste 5 Sudoeste 0 -- -- 94
2020-10-10 01:00:00 8.7 0 Calma 8 Sur 0 -- -- 91
2020-10-10 00:00:00 9.7 5 Sur 10 Sur 0 -- -- 89
2020-10-09 23:00:00 11.4 4 Sur 6 Sur 0 -- -- 88
2020-10-09 22:00:00 12.7 2 Sudoeste 5 Nordeste 0 -- -- 88
2020-10-09 21:00:00 13 3 Nordeste 9 Norte 0 -- -- 87
2020-10-09 20:00:00 14.1 3 Nordeste 16 Norte 0 -- -- 83
2020-10-09 19:00:00 15.7 6 Norte 23 Oeste 0 -- -- 74
2020-10-09 18:00:00 18 5 Norte 12 Nordeste 0 -- -- 61
2020-10-09 17:00:00 18.7 6 Norte 14 Norte 0 -- -- 52
2020-10-09 16:00:00 18.6 5 Norte 13 Norte 0 -- -- 54
2020-10-09 15:00:00 18 7 Nordeste 17 Nordeste 0 -- -- 59
2020-10-09 14:00:00 18 8 Nordeste 16 Nordeste 0 -- -- 59
2020-10-09 13:00:00 17.1 3 Nordeste 8 Nordeste 0 -- -- 50
2020-10-09 12:00:00 13.3 2 Sudoeste 6 Sur 0 -- -- 76
2020-10-09 11:00:00 9.1 0 Calma 5 Oeste 0 -- -- 89
2020-10-09 10:00:00 5.4 2 Sudoeste 5 Oeste 0 -- -- 99
2020-10-09 09:00:00 4.8 3 Sudoeste 6 Sudoeste 0 -- -- 98
2020-10-09 08:00:00 5.2 2 Sudoeste 6 Oeste 0 -- -- 97
2020-10-09 07:00:00 5.6 3 Sudoeste 10 Oeste 0 -- -- 96
2020-10-09 06:00:00 6.3 4 Sudoeste 11 Oeste 0 -- -- 95
2020-10-09 05:00:00 7.2 4 Sudoeste 9 Oeste 0 -- -- 95
2020-10-09 04:00:00 8.3 3 Oeste 9 Oeste 0 -- -- 95
2020-10-09 03:00:00 9.4 3 Sudoeste 6 Sudoeste 0 -- -- 97
2020-10-09 02:00:00 10.1 2 Sudoeste 9 Sur 0 -- -- 95
2020-10-09 01:00:00 11.3 2 Oeste 9 Oeste 0 -- -- 93
2020-10-09 00:00:00 12.9 0 Calma 6 Sur 0 -- -- 92
2020-10-08 23:00:00 13.2 0 Calma 5 Sur 0 -- -- 92
2020-10-08 22:00:00 14.5 0 Calma 9 Norte 0 -- -- 87
2020-10-08 21:00:00 15.4 0 Calma 6 Norte 0 -- -- 83
2020-10-08 20:00:00 16.6 3 Este 13 Norte 0 -- -- 77
2020-10-08 19:00:00 18.8 4 Noroeste 16 Noroeste 0 -- -- 72
2020-10-08 18:00:00 19.9 6 Oeste 15 Oeste 0 -- -- 67
2020-10-08 17:00:00 22.3 4 Oeste 19 Oeste 0 -- -- 50
2020-10-08 16:00:00 22.8 7 Sudoeste 16 Sudoeste 0 -- -- 46
2020-10-08 15:00:00 21.6 11 Sur 21 Sur 0 -- -- 49
2020-10-08 14:00:00 20.6 11 Sur 26 Sur 0 -- -- 56
2020-10-08 13:00:00 15.2 2 Norte 10 Norte 0 -- -- 89
2020-10-08 12:00:00 12.2 5 Norte 10 Norte 0 -- -- 98
2020-10-08 11:00:00 10.7 0 Calma 8 Nordeste 0 -- -- 100
2020-10-08 10:00:00 9.5 3 Norte 7 Nordeste 0 -- -- 100
2020-10-08 09:00:00 7.9 2 Sudeste 6 Sudoeste 0 -- -- 100
2020-10-08 08:00:00 7.8 2 Sudoeste 5 Sudoeste 0 -- -- 100
2020-10-08 07:00:00 7.4 2 Sudoeste 7 Oeste 0 -- -- 100
2020-10-08 06:00:00 7.3 3 Sur 6 Sudoeste 0 -- -- 100
2020-10-08 05:00:00 7.3 2 Sur 4 Sur 0 -- -- 100
2020-10-08 04:00:00 7.6 2 Sudeste 4 Sur 0 -- -- 100
2020-10-08 03:00:00 8.1 2 Sudoeste 3 Sur 0 -- -- 99
2020-10-08 02:00:00 8.9 0 Calma 4 Sudoeste 0 -- -- 97
2020-10-08 01:00:00 9.6 0 Calma 6 Sudoeste 0 -- -- 98
2020-10-08 00:00:00 10.4 5 Sur 6 Sur 0 -- -- 96
2020-10-07 23:00:00 11.2 0 Calma 9 Sur 0 -- -- 94
2020-10-07 22:00:00 12.4 5 Sur 9 Sur 0 -- -- 92
2020-10-07 21:00:00 13.8 3 Sur 8 Sur 0 -- -- 88
2020-10-07 20:00:00 15.5 0 Calma 12 Norte 0 -- -- 80
2020-10-07 19:00:00 17.3 6 Noroeste 14 Norte 0 -- -- 76
2020-10-07 18:00:00 17.3 4 Norte 12 Norte 0 -- -- 79
2020-10-07 17:00:00 18.6 6 Norte 13 Norte 0 -- -- 75
2020-10-07 16:00:00 19.9 4 Nordeste 16 Norte 0 -- -- 73
2020-10-07 15:00:00 19.7 5 Norte 12 Norte 0 -- -- 67
2020-10-07 14:00:00 18.3 6 Norte 13 Norte 0 -- -- 70
2020-10-07 13:00:00 17.2 5 Norte 12 Norte 0 -- -- 74
2020-10-07 12:00:00 15.9 2 Sur 9 Norte 0 -- -- 83
2020-10-07 11:00:00 13.4 3 Nordeste 10 Norte 0 -- -- 98
2020-10-07 10:00:00 12.5 4 Nordeste 9 Norte 0 -- -- 100
2020-10-07 09:00:00 12.5 2 Norte 8 Norte 0 -- -- 100
2020-10-07 08:00:00 12.5 0 Calma 5 Norte 0 -- -- 99
2020-10-07 07:00:00 12.4 0 Calma 3 Sudeste 0 -- -- 99
2020-10-07 06:00:00 12.3 0 Calma 6 Sudeste 0 -- -- 99
2020-10-07 05:00:00 12.3 2 Sur 4 Sur 0 -- -- 98
2020-10-07 04:00:00 12.1 0 Calma 5 Noroeste 0 -- -- 99
2020-10-07 03:00:00 11.6 4 Sur 9 Sur 0 -- -- 98
2020-10-07 02:00:00 11.3 0 Calma 5 Sudeste 0 -- -- 94
2020-10-07 01:00:00 11 3 Sur 7 Sudeste 0 -- -- 94
2020-10-07 00:00:00 11.1 3 Sudoeste 10 Sur 0 -- -- 94
2020-10-06 23:00:00 11.4 5 Sur 18 Sudeste 0 -- -- 92
2020-10-06 22:00:00 12 4 Sudeste 15 Noroeste 0 -- -- 89
2020-10-06 21:00:00 12.5 3 Noroeste 14 Noroeste 0 -- -- 90
2020-10-06 20:00:00 13.2 6 Oeste 15 Sudoeste 0 -- -- 87
2020-10-06 19:00:00 14.5 7 Oeste 18 Sudoeste 0 -- -- 83
2020-10-06 18:00:00 16 9 Oeste 23 Oeste 0 -- -- 78
2020-10-06 17:00:00 17.3 9 Oeste 28 Noroeste 0 -- -- 73
2020-10-06 16:00:00 17.3 12 Sudoeste 33 Oeste 0 -- -- 73
2020-10-06 15:00:00 16.3 10 Oeste 34 Oeste 0.2 -- -- 84
2020-10-06 14:00:00 14.4 8 Oeste 27 Noroeste 0 -- -- 90
2020-10-06 13:00:00 14.6 8 Oeste 31 Oeste 0 -- -- 91
2020-10-06 12:00:00 13.6 9 Sudoeste 24 Sudoeste 0 -- -- 98
2020-10-06 11:00:00 13.3 7 Sudoeste 28 Sudoeste 0 -- -- 99
2020-10-06 10:00:00 13 7 Sudoeste 22 Sudoeste 0 -- -- 100
2020-10-06 09:00:00 12.9 6 Sudoeste 13 Sudoeste 0 -- -- 100
2020-10-06 08:00:00 12.9 2 Sudoeste 10 Oeste 0 -- -- 100
2020-10-06 07:00:00 12.9 2 Noroeste 9 Oeste 0 -- -- 100
2020-10-06 06:00:00 12.8 4 Sur 13 Oeste 0 -- -- 100
2020-10-06 05:00:00 12.9 4 Sudoeste 19 Sudoeste 0 -- -- 99
2020-10-06 04:00:00 12.9 6 Sudoeste 16 Sur 0 -- -- 98
2020-10-06 03:00:00 12.8 3 Sudoeste 11 Noroeste 0 -- -- 98
2020-10-06 02:00:00 12.6 2 Sur 5 Sur 0 -- -- 99
2020-10-06 01:00:00 12.5 2 Sudoeste 9 Oeste 0 -- -- 99
2020-10-06 00:00:00 12.3 2 Sudoeste 17 Sudoeste 0 -- -- 100
2020-10-05 23:00:00 12.3 5 Sudoeste 16 Sur 0 -- -- 99
2020-10-05 22:00:00 12.3 6 Sudoeste 17 Sudoeste 0 -- -- 98
2020-10-05 21:00:00 12.4 5 Oeste 18 Sudoeste 0 -- -- 97
2020-10-05 20:00:00 12.6 6 Oeste 23 Sudoeste 0 -- -- 94
2020-10-05 19:00:00 12.5 4 Sudoeste 10 Oeste 0 -- -- 92
2020-10-05 18:00:00 12.7 6 Sudoeste 22 Sudoeste 0 -- -- 90
2020-10-05 17:00:00 13.6 9 Sudoeste 19 Sudoeste 0 -- -- 87
2020-10-05 16:00:00 12.7 5 Sudoeste 17 Sudoeste 0 -- -- 87
2020-10-05 15:00:00 12.1 6 Sudoeste 24 Oeste 0 -- -- 91
2020-10-05 14:00:00 12.1 6 Oeste 16 Sudoeste 0 -- -- 87
2020-10-05 13:00:00 9.9 0 Calma 12 Sur 0 -- -- 96
2020-10-05 12:00:00 8.7 5 Sudeste 9 Sur 0 -- -- 96
2020-10-05 11:00:00 8.2 3 Sudeste 8 Sudeste 0.2 -- -- 97
2020-10-05 10:00:00 7.6 0 Calma 11 Sudeste 0 -- -- 98
2020-10-05 09:00:00 7.2 4 Sudoeste 12 Oeste 0 -- -- 99
2020-10-05 08:00:00 7 2 Sur 9 Oeste 0 -- -- 99
2020-10-05 07:00:00 6.7 0 Calma 8 Sudeste 0 -- -- 99
2020-10-05 06:00:00 6.8 2 Sur 13 Noroeste 0 -- -- 98
2020-10-05 05:00:00 6.6 5 Noroeste 20 Oeste 0 -- -- 99
2020-10-05 04:00:00 6.5 3 Noroeste 10 Sur 0 -- -- 98
2020-10-05 03:00:00 6.5 0 Calma 33 Noroeste 0 -- -- 97
2020-10-05 02:00:00 6.7 14 Noroeste 31 Oeste 0.8 -- -- 98
2020-10-05 01:00:00 6.9 8 Noroeste 27 Noroeste 0 -- -- 97
2020-10-05 00:00:00 6.7 8 Noroeste 28 Noroeste 0.2 -- -- 98
2020-10-04 23:00:00 6.7 4 Norte 26 Norte 0 -- -- 95
2020-10-04 22:00:00 6.7 11 Noroeste 28 Noroeste 0 -- -- 96
2020-10-04 21:00:00 6.9 8 Noroeste 26 Noroeste 0 -- -- 98
2020-10-04 20:00:00 7 9 Noroeste 44 Noroeste 1 -- -- 97
2020-10-04 19:00:00 7.9 13 Noroeste 45 Noroeste 0.4 -- -- 98
2020-10-04 18:00:00 8.1 11 Oeste 38 Oeste 2 -- -- 99
2020-10-04 17:00:00 8.4 9 Noroeste 31 Oeste 2 -- -- 97
2020-10-04 16:00:00 9 9 Oeste 31 Noroeste 0.2 -- -- 97
2020-10-04 15:00:00 8.2 10 Noroeste 33 Oeste 0.4 -- -- 96
2020-10-04 14:00:00 8.3 13 Noroeste 30 Oeste 0.2 -- -- 93
2020-10-04 13:00:00 8 7 Oeste 27 Oeste 0.2 -- -- 95
2020-10-04 12:00:00 7.3 7 Noroeste 24 Oeste 0.4 -- -- 97
2020-10-04 11:00:00 7.1 9 Oeste 31 Noroeste 0 -- -- 97
2020-10-04 10:00:00 6.8 13 Noroeste 34 Noroeste 0.8 -- -- 96
2020-10-04 09:00:00 7 11 Noroeste 33 Noroeste 0.2 -- -- 96
2020-10-04 08:00:00 7.2 7 Oeste 23 Noroeste 0 -- -- 96
2020-10-04 07:00:00 7.4 12 Noroeste 32 Oeste 0.2 -- -- 96
2020-10-04 06:00:00 8.1 14 Oeste 40 Oeste 1 -- -- 98
2020-10-04 05:00:00 8.5 12 Sudoeste 33 Sudoeste 0.8 -- -- 99
2020-10-04 04:00:00 8.4 15 Sudoeste 35 Sur 0 -- -- 98
2020-10-04 03:00:00 7.8 13 Sudoeste 31 Sur 0 -- -- 98
2020-10-04 02:00:00 7.3 13 Sudoeste 22 Sudoeste 0.2 -- -- 98
2020-10-04 01:00:00 7.1 9 Sudoeste 27 Sudoeste 0 -- -- 99
2020-10-04 00:00:00 7 7 Sudoeste 22 Sur 0 -- -- 98
2020-10-03 23:00:00 6.5 12 Sur 25 Sur 0 -- -- 95
2020-10-03 22:00:00 6.7 10 Oeste 36 Noroeste 0 -- -- 96
2020-10-03 21:00:00 7.2 6 Sudoeste 27 Oeste 0 -- -- 97
2020-10-03 20:00:00 8 7 Sudoeste 27 Oeste 0 -- -- 90
2020-10-03 19:00:00 8.6 5 Sudoeste 35 Sudoeste 0 -- -- 88
2020-10-03 18:00:00 9 7 Oeste 38 Oeste 0 -- -- 89
2020-10-03 17:00:00 8.8 8 Oeste 27 Oeste 0 -- -- 88
2020-10-03 16:00:00 10.3 12 Oeste 31 Oeste 0 -- -- 82
2020-10-03 15:00:00 8.5 7 Oeste 29 Oeste 0 -- -- 88
2020-10-03 14:00:00 8.7 10 Noroeste 33 Oeste 0 -- -- 79
2020-10-03 13:00:00 7.5 6 Noroeste 27 Noroeste 0 -- -- 87
2020-10-03 12:00:00 7 6 Noroeste 28 Noroeste 0 -- -- 92
2020-10-03 11:00:00 5.8 9 Noroeste 23 Noroeste 0 -- -- 97
2020-10-03 10:00:00 5.2 6 Noroeste 24 Noroeste 0.2 -- -- 97
2020-10-03 09:00:00 5.1 4 Noroeste 21 Noroeste 0 -- -- 98
2020-10-03 08:00:00 4.8 5 Noroeste 22 Noroeste 0 -- -- 99
2020-10-03 07:00:00 4.4 7 Noroeste 20 Norte 0.2 -- -- 98
2020-10-03 06:00:00 4.5 9 Noroeste 31 Noroeste 0.4 -- -- 99
2020-10-03 05:00:00 4.4 8 Norte 37 Noroeste 1.6 -- -- 99
2020-10-03 04:00:00 4.5 13 Norte 38 Noroeste 3.2 -- -- 98
2020-10-03 03:00:00 5 13 Noroeste 33 Oeste 0.4 -- -- 98
2020-10-03 02:00:00 4.7 8 Noroeste 34 Norte 0.4 -- -- 97
2020-10-03 01:00:00 5.2 15 Noroeste 32 Noroeste 0 -- -- 99
2020-10-03 00:00:00 5.1 10 Noroeste 33 Noroeste 0 -- -- 98
2020-10-02 23:00:00 4.9 12 Noroeste 35 Noroeste 1.2 -- -- 99
2020-10-02 22:00:00 5 15 Norte 41 Oeste 1.6 -- -- 97
2020-10-02 21:00:00 5.2 11 Noroeste 29 Noroeste 0.8 -- -- 98
2020-10-02 20:00:00 4.8 6 Noroeste 25 Noroeste 1 -- -- 98
2020-10-02 19:00:00 5.7 8 Oeste 32 Noroeste 0 -- -- 93
2020-10-02 18:00:00 5.6 9 Noroeste 39 Noroeste 0.2 -- -- 92
2020-10-02 17:00:00 5.4 9 Noroeste 41 Noroeste 0.6 -- -- 95
2020-10-02 16:00:00 6 15 Noroeste 42 Noroeste 0.2 -- -- 88
2020-10-02 15:00:00 5.3 9 Oeste 35 Noroeste 0.8 -- -- 97
2020-10-02 14:00:00 4.5 16 Noroeste 46 Oeste 0.8 -- -- 94
2020-10-02 13:00:00 5 13 Noroeste 34 Noroeste 0.2 -- -- 95
2020-10-02 12:00:00 5.1 9 Noroeste 33 Noroeste 0.2 -- -- 95
2020-10-02 11:00:00 4.3 12 Noroeste 36 Noroeste 0.6 -- -- 98
2020-10-02 10:00:00 4.5 12 Norte 33 Norte 1.8 -- -- 98
2020-10-02 09:00:00 5.3 19 Noroeste 49 Noroeste 3.6 -- -- 96
2020-10-02 08:00:00 6.9 16 Noroeste 65 Noroeste 1 -- -- 98
2020-10-02 07:00:00 8.7 22 Noroeste 52 Noroeste 4.4 -- -- 97
2020-10-02 06:00:00 9.7 21 Oeste 69 Oeste 0.2 -- -- 96
2020-10-02 05:00:00 10.9 21 Oeste 60 Oeste 2 -- -- 98
2020-10-02 04:00:00 11.2 15 Oeste 73 Oeste 4.8 -- -- 98
2020-10-02 03:00:00 11.8 17 Sudoeste 52 Oeste 4.8 -- -- 99
2020-10-02 02:00:00 12.1 24 Sudoeste 60 Oeste 5.6 -- -- 100
2020-10-02 01:00:00 11 27 Sudoeste 57 Sur 4.4 -- -- 99
2020-10-02 00:00:00 10.3 36 Sur 63 Sur 0.8 -- -- 98
2020-10-01 23:00:00 9.7 33 Sur 56 Sur 1.2 -- -- 98
2020-10-01 22:00:00 9.5 27 Sudoeste 46 Sur 0.6 -- -- 96
2020-10-01 21:00:00 9.8 26 Sur 47 Sudoeste 0 -- -- 92
2020-10-01 20:00:00 10.6 23 Sudoeste 45 Sudoeste 0 -- -- 84
2020-10-01 19:00:00 11.2 9 Sudoeste 33 Sudoeste 0 -- -- 83
2020-10-01 18:00:00 11.8 13 Sudoeste 31 Sudoeste 0 -- -- 80
2020-10-01 17:00:00 12.3 13 Sudoeste 32 Sudoeste 0 -- -- 76
2020-10-01 16:00:00 12.6 15 Oeste 36 Sudoeste 0 -- -- 75
2020-10-01 15:00:00 13.4 11 Sudoeste 28 Sudoeste 0 -- -- 73
2020-10-01 14:00:00 12 9 Oeste 21 Oeste 0 -- -- 76
2020-10-01 13:00:00 11.7 5 Oeste 22 Oeste 0 -- -- 83
2020-10-01 12:00:00 10.5 6 Oeste 18 Oeste 0.2 -- -- 98
2020-10-01 11:00:00 9.4 5 Sudoeste 15 Noroeste 0.4 -- -- 97
2020-10-01 10:00:00 9.1 3 Noroeste 11 Oeste 0 -- -- 97
2020-10-01 09:00:00 8.9 6 Sur 14 Oeste 0 -- -- 95
2020-10-01 08:00:00 9.1 4 Oeste 22 Noroeste 0 -- -- 94
2020-10-01 07:00:00 9.3 9 Oeste 24 Oeste 0.2 -- -- 95
2020-10-01 06:00:00 9.9 5 Oeste 31 Oeste 0.4 -- -- 96
2020-10-01 05:00:00 10.8 8 Sudoeste 19 Sudoeste 0 -- -- 97
2020-10-01 04:00:00 11 6 Sudoeste 21 Sudoeste 0 -- -- 96
2020-10-01 03:00:00 11.2 5 Oeste 29 Oeste 0 -- -- 94
2020-10-01 02:00:00 11 9 Sudoeste 21 Sudoeste 0 -- -- 94
2020-10-01 01:00:00 10 3 Sur 14 Noroeste 0 -- -- 90
2020-10-01 00:00:00 9.6 9 Sudeste 29 Oeste 0 -- -- 89
2020-09-30 23:00:00 10 0 Calma 20 Oeste 0 -- -- 89
2020-09-30 22:00:00 10.5 9 Oeste 24 Oeste 0 -- -- 90
2020-09-30 21:00:00 11.7 8 Sudoeste 26 Noroeste 0 -- -- 84
2020-09-30 20:00:00 13.5 10 Oeste 28 Oeste 0 -- -- 83
2020-09-30 19:00:00 15.8 10 Oeste 28 Sudoeste 0 -- -- 75
2020-09-30 18:00:00 18.6 12 Oeste 26 Oeste 0 -- -- 65
2020-09-30 17:00:00 20 13 Oeste 30 Sudoeste 0 -- -- 57
2020-09-30 16:00:00 22.5 10 Sudoeste 31 Sur 0 -- -- 36
2020-09-30 15:00:00 21.4 10 Sudoeste 28 Sudoeste 0 -- -- 36
2020-09-30 14:00:00 21.3 10 Sudoeste 25 Sudoeste 0 -- -- 40
2020-09-30 13:00:00 20.6 12 Sudoeste 20 Sudoeste 0 -- -- 40
2020-09-30 12:00:00 18.1 5 Sudoeste 10 Sudoeste 0 -- -- 63
2020-09-30 11:00:00 13.3 0 Calma 9 Oeste 0 -- -- 82
2020-09-30 10:00:00 8.5 4 Oeste 9 Oeste 0 -- -- 92
2020-09-30 09:00:00 6.4 6 Sudoeste 9 Oeste 0 -- -- 97
2020-09-30 08:00:00 6.5 4 Sudoeste 8 Sudoeste 0 -- -- 96
2020-09-30 07:00:00 6.6 4 Sudoeste 9 Sudoeste 0 -- -- 95
2020-09-30 06:00:00 6.9 4 Oeste 7 Sudoeste 0 -- -- 95
2020-09-30 05:00:00 7.2 3 Sudoeste 11 Oeste 0 -- -- 94
2020-09-30 04:00:00 7.6 4 Sudoeste 8 Sudoeste 0 -- -- 93
2020-09-30 03:00:00 7.8 4 Sudoeste 9 Sudoeste 0 -- -- 93
2020-09-30 02:00:00 8.3 4 Sudoeste 6 Sudoeste 0 -- -- 91
2020-09-30 01:00:00 8.8 4 Sudoeste 10 Sudoeste 0 -- -- 88
2020-09-30 00:00:00 9.5 4 Sudoeste 8 Sudoeste 0 -- -- 84